sensor_id;sensor_type;location;lat;lon;timestamp;temperature;humidity
2767;DHT22;1391;46.74287300;11.63683300;2023-05-17T06:32:19;14.90;22.20
2767;DHT22;1391;46.74287300;11.63683300;2023-05-17T06:34:47;14.50;20.70
2767;DHT22;1391;46.74287300;11.63683300;2023-05-17T06:37:14;14.40;21.50
2767;DHT22;1391;46.74287300;11.63683300;2023-05-17T06:39:42;14.80;21.20
2767;DHT22;1391;46.74287300;11.63683300;2023-05-17T06:42:09;14.90;22.80
2767;DHT22;1391;46.74287300;11.63683300;2023-05-17T06:44:36;15.40;22.00
2767;DHT22;1391;46.74287300;11.63683300;2023-05-17T06:47:03;15.40;18.80
2767;DHT22;1391;46.74287300;11.63683300;2023-05-17T06:49:32;14.70;20.30
2767;DHT22;1391;46.74287300;11.63683300;2023-05-17T06:51:59;14.60;20.50
2767;DHT22;1391;46.74287300;11.63683300;2023-05-17T06:54:30;14.50;22.00
2767;DHT22;1391;46.74287300;11.63683300;2023-05-17T06:56:59;14.40;19.50
2767;DHT22;1391;46.74287300;11.63683300;2023-05-17T06:59:27;14.50;19.00
2767;DHT22;1391;46.74287300;11.63683300;2023-05-17T07:01:55;14.60;21.40
2767;DHT22;1391;46.74287300;11.63683300;2023-05-17T07:04:25;14.80;21.90
2767;DHT22;1391;46.74287300;11.63683300;2023-05-17T07:06:53;15.10;20.00
2767;DHT22;1391;46.74287300;11.63683300;2023-05-17T07:09:21;14.60;19.40
2767;DHT22;1391;46.74287300;11.63683300;2023-05-17T07:11:48;15.30;20.70
2767;DHT22;1391;46.74287300;11.63683300;2023-05-17T07:14:15;15.50;19.60
2767;DHT22;1391;46.74287300;11.63683300;2023-05-17T07:16:43;15.30;21.40
2767;DHT22;1391;46.74287300;11.63683300;2023-05-17T07:19:10;15.10;23.10
2767;DHT22;1391;46.74287300;11.63683300;2023-05-17T07:21:37;15.60;19.40
2767;DHT22;1391;46.74287300;11.63683300;2023-05-17T07:24:07;15.50;19.70
2767;DHT22;1391;46.74287300;11.63683300;2023-05-17T07:26:35;15.60;19.90
2767;DHT22;1391;46.74287300;11.63683300;2023-05-17T07:29:02;15.80;17.30
2767;DHT22;1391;46.74287300;11.63683300;2023-05-17T07:31:33;16.00;19.60
2767;DHT22;1391;46.74287300;11.63683300;2023-05-17T07:34:00;15.80;18.30
2767;DHT22;1391;46.74287300;11.63683300;2023-05-17T07:36:28;16.10;20.10
2767;DHT22;1391;46.74287300;11.63683300;2023-05-17T07:38:55;16.00;19.40
2767;DHT22;1391;46.74287300;11.63683300;2023-05-17T07:41:24;15.40;18.00
2767;DHT22;1391;46.74287300;11.63683300;2023-05-17T07:43:51;15.90;17.50
2767;DHT22;1391;46.74287300;11.63683300;2023-05-17T07:46:19;16.10;18.40
2767;DHT22;1391;46.74287300;11.63683300;2023-05-17T07:48:46;16.00;17.00
2767;DHT22;1391;46.74287300;11.63683300;2023-05-17T07:51:14;16.50;17.90
2767;DHT22;1391;46.74287300;11.63683300;2023-05-17T07:53:41;16.20;17.40
2767;DHT22;1391;46.74287300;11.63683300;2023-05-17T07:56:08;16.10;17.90
2767;DHT22;1391;46.74287300;11.63683300;2023-05-17T07:58:37;15.90;17.50
2767;DHT22;1391;46.74287300;11.63683300;2023-05-17T08:01:04;15.90;20.10
2767;DHT22;1391;46.74287300;11.63683300;2023-05-17T08:03:31;16.50;19.00
2767;DHT22;1391;46.74287300;11.63683300;2023-05-17T08:05:59;16.50;19.90
2767;DHT22;1391;46.74287300;11.63683300;2023-05-17T08:08:26;16.60;19.20
2767;DHT22;1391;46.74287300;11.63683300;2023-05-17T08:10:53;16.00;17.90
2767;DHT22;1391;46.74287300;11.63683300;2023-05-17T08:13:21;16.00;16.10
2767;DHT22;1391;46.74287300;11.63683300;2023-05-17T08:15:50;15.80;22.20
2767;DHT22;1391;46.74287300;11.63683300;2023-05-17T08:18:17;16.00;19.70
2767;DHT22;1391;46.74287300;11.63683300;2023-05-17T08:20:45;15.90;18.50
2767;DHT22;1391;46.74287300;11.63683300;2023-05-17T08:23:14;15.30;20.60
2767;DHT22;1391;46.74287300;11.63683300;2023-05-17T08:25:41;15.30;20.60
2767;DHT22;1391;46.74287300;11.63683300;2023-05-17T08:28:09;15.40;20.90
2767;DHT22;1391;46.74287300;11.63683300;2023-05-17T08:30:37;15.50;21.60
2767;DHT22;1391;46.74287300;11.63683300;2023-05-17T08:33:05;15.40;19.90
2767;DHT22;1391;46.74287300;11.63683300;2023-05-17T08:35:35;15.50;21.80
2767;DHT22;1391;46.74287300;11.63683300;2023-05-17T08:38:02;15.30;18.30
2767;DHT22;1391;46.74287300;11.63683300;2023-05-17T08:40:30;15.50;20.00
2767;DHT22;1391;46.74287300;11.63683300;2023-05-17T08:42:57;15.10;22.50
2767;DHT22;1391;46.74287300;11.63683300;2023-05-17T08:45:25;15.50;24.40
2767;DHT22;1391;46.74287300;11.63683300;2023-05-17T08:47:54;15.40;25.50
2767;DHT22;1391;46.74287300;11.63683300;2023-05-17T08:50:23;15.10;18.70
2767;DHT22;1391;46.74287300;11.63683300;2023-05-17T08:52:51;15.00;22.60
2767;DHT22;1391;46.74287300;11.63683300;2023-05-17T08:55:20;15.00;21.20
2767;DHT22;1391;46.74287300;11.63683300;2023-05-17T08:57:50;15.10;19.00
2767;DHT22;1391;46.74287300;11.63683300;2023-05-17T09:00:20;15.30;22.30
2767;DHT22;1391;46.74287300;11.63683300;2023-05-17T09:02:50;15.30;19.80
2767;DHT22;1391;46.74287300;11.63683300;2023-05-17T09:05:17;14.70;22.30
2767;DHT22;1391;46.74287300;11.63683300;2023-05-17T09:07:47;14.50;20.30
2767;DHT22;1391;46.74287300;11.63683300;2023-05-17T09:10:15;14.70;23.20
2767;DHT22;1391;46.74287300;11.63683300;2023-05-17T09:12:43;14.60;19.90
2767;DHT22;1391;46.74287300;11.63683300;2023-05-17T09:15:12;14.70;20.50
2767;DHT22;1391;46.74287300;11.63683300;2023-05-17T09:17:40;14.90;19.90
2767;DHT22;1391;46.74287300;11.63683300;2023-05-17T09:20:08;14.60;22.70
2767;DHT22;1391;46.74287300;11.63683300;2023-05-17T09:22:36;14.60;17.70
2767;DHT22;1391;46.74287300;11.63683300;2023-05-17T09:25:06;15.40;20.50
2767;DHT22;1391;46.74287300;11.63683300;2023-05-17T09:27:34;14.70;20.30
2767;DHT22;1391;46.74287300;11.63683300;2023-05-17T09:30:02;14.70;20.10
2767;DHT22;1391;46.74287300;11.63683300;2023-05-17T09:32:32;15.10;20.10
2767;DHT22;1391;46.74287300;11.63683300;2023-05-17T09:34:59;15.20;18.40
2767;DHT22;1391;46.74287300;11.63683300;2023-05-17T09:37:28;15.30;18.90
2767;DHT22;1391;46.74287300;11.63683300;2023-05-17T09:39:56;15.00;20.70
2767;DHT22;1391;46.74287300;11.63683300;2023-05-17T09:42:25;15.00;19.40
2767;DHT22;1391;46.74287300;11.63683300;2023-05-17T09:44:54;15.40;23.10
2767;DHT22;1391;46.74287300;11.63683300;2023-05-17T09:47:25;15.40;20.00
2767;DHT22;1391;46.74287300;11.63683300;2023-05-17T09:49:55;15.30;19.80
2767;DHT22;1391;46.74287300;11.63683300;2023-05-17T09:52:25;15.50;18.40
2767;DHT22;1391;46.74287300;11.63683300;2023-05-17T09:54:57;15.10;18.10
2767;DHT22;1391;46.74287300;11.63683300;2023-05-17T09:57:47;15.10;20.90
2767;DHT22;1391;46.74287300;11.63683300;2023-05-17T10:00:19;15.50;21.60
2767;DHT22;1391;46.74287300;11.63683300;2023-05-17T10:02:48;15.30;21.00
2767;DHT22;1391;46.74287300;11.63683300;2023-05-17T10:05:16;15.50;22.60
2767;DHT22;1391;46.74287300;11.63683300;2023-05-17T10:07:45;15.30;21.40
2767;DHT22;1391;46.74287300;11.63683300;2023-05-17T10:10:13;15.30;18.50
2767;DHT22;1391;46.74287300;11.63683300;2023-05-17T10:12:44;15.60;17.70
2767;DHT22;1391;46.74287300;11.63683300;2023-05-17T10:15:12;16.00;19.80
2767;DHT22;1391;46.74287300;11.63683300;2023-05-17T10:17:43;16.00;20.60
2767;DHT22;1391;46.74287300;11.63683300;2023-05-17T10:20:12;15.90;19.00
2767;DHT22;1391;46.74287300;11.63683300;2023-05-17T10:22:40;15.60;19.10
2767;DHT22;1391;46.74287300;11.63683300;2023-05-17T10:25:09;15.90;19.10
2767;DHT22;1391;46.74287300;11.63683300;2023-05-17T10:27:36;15.40;17.70
2767;DHT22;1391;46.74287300;11.63683300;2023-05-17T10:30:06;15.50;21.90
2767;DHT22;1391;46.74287300;11.63683300;2023-05-17T10:32:35;15.60;19.90
2767;DHT22;1391;46.74287300;11.63683300;2023-05-17T10:35:03;15.50;18.30
2767;DHT22;1391;46.74287300;11.63683300;2023-05-17T10:37:31;15.50;18.00
2767;DHT22;1391;46.74287300;11.63683300;2023-05-17T10:39:59;15.40;19.20
2767;DHT22;1391;46.74287300;11.63683300;2023-05-17T10:42:27;15.20;18.90
2767;DHT22;1391;46.74287300;11.63683300;2023-05-17T10:44:54;15.50;19.00
2767;DHT22;1391;46.74287300;11.63683300;2023-05-17T10:47:30;15.20;17.30
2767;DHT22;1391;46.74287300;11.63683300;2023-05-17T10:49:58;15.10;17.10
2767;DHT22;1391;46.74287300;11.63683300;2023-05-17T10:52:26;15.50;20.20
2767;DHT22;1391;46.74287300;11.63683300;2023-05-17T10:54:54;15.50;20.30
2767;DHT22;1391;46.74287300;11.63683300;2023-05-17T10:57:31;15.40;21.00
2767;DHT22;1391;46.74287300;11.63683300;2023-05-17T11:00:00;14.70;19.80
2767;DHT22;1391;46.74287300;11.63683300;2023-05-17T11:02:34;15.50;18.60
2767;DHT22;1391;46.74287300;11.63683300;2023-05-17T11:05:06;15.40;17.40
2767;DHT22;1391;46.74287300;11.63683300;2023-05-17T11:07:33;15.10;19.00
2767;DHT22;1391;46.74287300;11.63683300;2023-05-17T11:10:03;15.20;20.90
2767;DHT22;1391;46.74287300;11.63683300;2023-05-17T11:12:35;15.50;18.10
2767;DHT22;1391;46.74287300;11.63683300;2023-05-17T11:15:08;15.50;17.00
2767;DHT22;1391;46.74287300;11.63683300;2023-05-17T11:17:48;15.50;18.40
2767;DHT22;1391;46.74287300;11.63683300;2023-05-17T11:20:33;15.50;19.80
2767;DHT22;1391;46.74287300;11.63683300;2023-05-17T11:23:02;15.50;18.00
2767;DHT22;1391;46.74287300;11.63683300;2023-05-17T11:25:32;15.40;18.60
2767;DHT22;1391;46.74287300;11.63683300;2023-05-17T11:28:06;15.10;17.80
2767;DHT22;1391;46.74287300;11.63683300;2023-05-17T11:30:39;15.50;19.50
2767;DHT22;1391;46.74287300;11.63683300;2023-05-17T11:33:14;15.40;18.60
2767;DHT22;1391;46.74287300;11.63683300;2023-05-17T11:35:42;15.10;22.00
2767;DHT22;1391;46.74287300;11.63683300;2023-05-17T11:38:14;15.30;20.30
2767;DHT22;1391;46.74287300;11.63683300;2023-05-17T11:40:43;15.50;22.70
2767;DHT22;1391;46.74287300;11.63683300;2023-05-17T11:43:15;15.10;21.10
2767;DHT22;1391;46.74287300;11.63683300;2023-05-17T11:45:45;15.40;18.30
2767;DHT22;1391;46.74287300;11.63683300;2023-05-17T11:48:15;15.50;16.20
2767;DHT22;1391;46.74287300;11.63683300;2023-05-17T11:50:45;15.50;17.60
2767;DHT22;1391;46.74287300;11.63683300;2023-05-17T11:53:14;15.50;19.40
2767;DHT22;1391;46.74287300;11.63683300;2023-05-17T11:55:43;15.50;17.60
2767;DHT22;1391;46.74287300;11.63683300;2023-05-17T11:58:14;15.60;17.60
2767;DHT22;1391;46.74287300;11.63683300;2023-05-17T12:00:42;15.20;17.20
2767;DHT22;1391;46.74287300;11.63683300;2023-05-17T12:03:18;15.40;19.30
2767;DHT22;1391;46.74287300;11.63683300;2023-05-17T12:05:48;16.00;20.50
2767;DHT22;1391;46.74287300;11.63683300;2023-05-17T12:08:20;16.00;19.40
2767;DHT22;1391;46.74287300;11.63683300;2023-05-17T12:10:49;15.80;18.20
2767;DHT22;1391;46.74287300;11.63683300;2023-05-17T12:13:17;15.80;17.70
2767;DHT22;1391;46.74287300;11.63683300;2023-05-17T12:15:50;15.20;17.60
2767;DHT22;1391;46.74287300;11.63683300;2023-05-17T12:18:20;15.50;19.60
2767;DHT22;1391;46.74287300;11.63683300;2023-05-17T12:20:57;15.40;16.10
2767;DHT22;1391;46.74287300;11.63683300;2023-05-17T12:23:28;15.50;16.10
2767;DHT22;1391;46.74287300;11.63683300;2023-05-17T12:26:06;15.50;18.80
2767;DHT22;1391;46.74287300;11.63683300;2023-05-17T12:28:35;15.20;18.90
2767;DHT22;1391;46.74287300;11.63683300;2023-05-17T12:31:05;15.50;18.70
2767;DHT22;1391;46.74287300;11.63683300;2023-05-17T12:33:37;15.20;15.50
2767;DHT22;1391;46.74287300;11.63683300;2023-05-17T12:36:06;15.50;19.40
2767;DHT22;1391;46.74287300;11.63683300;2023-05-17T12:38:36;15.50;16.80
2767;DHT22;1391;46.74287300;11.63683300;2023-05-17T12:41:06;15.10;18.80
2767;DHT22;1391;46.74287300;11.63683300;2023-05-17T12:43:35;15.40;18.60
2767;DHT22;1391;46.74287300;11.63683300;2023-05-17T12:46:05;15.20;20.80
2767;DHT22;1391;46.74287300;11.63683300;2023-05-17T12:48:36;15.40;21.80
2767;DHT22;1391;46.74287300;11.63683300;2023-05-17T12:51:11;15.50;19.40
2767;DHT22;1391;46.74287300;11.63683300;2023-05-17T12:53:40;15.50;19.80
2767;DHT22;1391;46.74287300;11.63683300;2023-05-17T12:56:14;15.40;17.90
2767;DHT22;1391;46.74287300;11.63683300;2023-05-17T12:58:43;15.50;15.80
2767;DHT22;1391;46.74287300;11.63683300;2023-05-17T13:01:11;15.40;16.10
2767;DHT22;1391;46.74287300;11.63683300;2023-05-17T13:03:40;15.50;18.90
2767;DHT22;1391;46.74287300;11.63683300;2023-05-17T13:06:08;15.50;17.90
2767;DHT22;1391;46.74287300;11.63683300;2023-05-17T13:08:36;15.40;18.60
2767;DHT22;1391;46.74287300;11.63683300;2023-05-17T13:11:10;15.50;17.50
2767;DHT22;1391;46.74287300;11.63683300;2023-05-17T13:13:39;15.40;21.00
2767;DHT22;1391;46.74287300;11.63683300;2023-05-17T13:16:07;15.10;18.90
2767;DHT22;1391;46.74287300;11.63683300;2023-05-17T13:18:49;15.30;20.20
2767;DHT22;1391;46.74287300;11.63683300;2023-05-17T13:21:22;15.00;18.20
2767;DHT22;1391;46.74287300;11.63683300;2023-05-17T13:23:50;15.10;16.70
2767;DHT22;1391;46.74287300;11.63683300;2023-05-17T13:26:19;15.20;19.60
2767;DHT22;1391;46.74287300;11.63683300;2023-05-17T13:28:47;15.30;16.40
2767;DHT22;1391;46.74287300;11.63683300;2023-05-17T13:31:15;15.50;18.40
2767;DHT22;1391;46.74287300;11.63683300;2023-05-17T13:33:42;15.50;19.40
2767;DHT22;1391;46.74287300;11.63683300;2023-05-17T13:36:11;15.50;18.30
2767;DHT22;1391;46.74287300;11.63683300;2023-05-17T13:38:39;15.40;18.10
2767;DHT22;1391;46.74287300;11.63683300;2023-05-17T13:41:06;15.50;20.40
2767;DHT22;1391;46.74287300;11.63683300;2023-05-17T13:43:34;15.40;18.00
2767;DHT22;1391;46.74287300;11.63683300;2023-05-17T13:46:01;15.50;20.20
2767;DHT22;1391;46.74287300;11.63683300;2023-05-17T13:48:29;15.50;17.40
2767;DHT22;1391;46.74287300;11.63683300;2023-05-17T13:50:56;15.50;18.80
2767;DHT22;1391;46.74287300;11.63683300;2023-05-17T13:53:25;15.40;17.50
2767;DHT22;1391;46.74287300;11.63683300;2023-05-17T13:55:53;15.50;18.80
2767;DHT22;1391;46.74287300;11.63683300;2023-05-17T13:58:20;15.30;18.00
2767;DHT22;1391;46.74287300;11.63683300;2023-05-17T14:00:48;15.10;16.20
2767;DHT22;1391;46.74287300;11.63683300;2023-05-17T14:03:16;15.10;18.30
2767;DHT22;1391;46.74287300;11.63683300;2023-05-17T14:05:43;15.30;17.40
2767;DHT22;1391;46.74287300;11.63683300;2023-05-17T14:08:14;14.90;20.90
2767;DHT22;1391;46.74287300;11.63683300;2023-05-17T14:10:43;15.10;18.00
2767;DHT22;1391;46.74287300;11.63683300;2023-05-17T14:13:10;15.00;20.30
2767;DHT22;1391;46.74287300;11.63683300;2023-05-17T14:15:38;15.10;18.30
2767;DHT22;1391;46.74287300;11.63683300;2023-05-17T14:18:06;15.40;17.60
2767;DHT22;1391;46.74287300;11.63683300;2023-05-17T14:20:34;15.40;17.60
2767;DHT22;1391;46.74287300;11.63683300;2023-05-17T14:23:02;15.20;17.50
2767;DHT22;1391;46.74287300;11.63683300;2023-05-17T14:25:29;14.60;19.30
2767;DHT22;1391;46.74287300;11.63683300;2023-05-17T14:27:58;15.30;19.40
2767;DHT22;1391;46.74287300;11.63683300;2023-05-17T14:30:25;14.80;20.10
2767;DHT22;1391;46.74287300;11.63683300;2023-05-17T14:32:52;14.70;21.80
2767;DHT22;1391;46.74287300;11.63683300;2023-05-17T14:35:20;14.60;19.10
2767;DHT22;1391;46.74287300;11.63683300;2023-05-17T14:37:47;14.90;20.20
2767;DHT22;1391;46.74287300;11.63683300;2023-05-17T14:40:14;14.60;20.70
2767;DHT22;1391;46.74287300;11.63683300;2023-05-17T14:42:41;14.90;20.00
2767;DHT22;1391;46.74287300;11.63683300;2023-05-17T14:45:10;14.80;18.80
2767;DHT22;1391;46.74287300;11.63683300;2023-05-17T14:47:37;14.50;20.90
2767;DHT22;1391;46.74287300;11.63683300;2023-05-17T14:50:05;14.50;21.10
2767;DHT22;1391;46.74287300;11.63683300;2023-05-17T14:52:33;14.90;20.80
2767;DHT22;1391;46.74287300;11.63683300;2023-05-17T14:55:00;14.90;19.00
2767;DHT22;1391;46.74287300;11.63683300;2023-05-17T14:57:28;14.50;20.10
2767;DHT22;1391;46.74287300;11.63683300;2023-05-17T14:59:56;14.50;20.30
2767;DHT22;1391;46.74287300;11.63683300;2023-05-17T15:02:26;14.80;24.90
2767;DHT22;1391;46.74287300;11.63683300;2023-05-17T15:04:53;14.50;20.00
2767;DHT22;1391;46.74287300;11.63683300;2023-05-17T15:07:21;14.50;19.00
2767;DHT22;1391;46.74287300;11.63683300;2023-05-17T15:09:48;14.60;20.10
2767;DHT22;1391;46.74287300;11.63683300;2023-05-17T15:12:16;14.80;19.80
2767;DHT22;1391;46.74287300;11.63683300;2023-05-17T15:14:43;14.50;20.20
2767;DHT22;1391;46.74287300;11.63683300;2023-05-17T15:17:11;14.80;20.90
2767;DHT22;1391;46.74287300;11.63683300;2023-05-17T15:19:40;14.50;19.50
2767;DHT22;1391;46.74287300;11.63683300;2023-05-17T15:22:07;14.50;20.00
2767;DHT22;1391;46.74287300;11.63683300;2023-05-17T15:24:35;14.50;19.60
2767;DHT22;1391;46.74287300;11.63683300;2023-05-17T15:27:04;14.20;20.20
2767;DHT22;1391;46.74287300;11.63683300;2023-05-17T15:29:32;14.10;20.80
2767;DHT22;1391;46.74287300;11.63683300;2023-05-17T15:32:03;14.10;21.30
2767;DHT22;1391;46.74287300;11.63683300;2023-05-17T15:34:31;14.00;21.20
2767;DHT22;1391;46.74287300;11.63683300;2023-05-17T15:37:00;14.40;26.10
2767;DHT22;1391;46.74287300;11.63683300;2023-05-17T15:39:27;14.30;20.20
2767;DHT22;1391;46.74287300;11.63683300;2023-05-17T15:41:54;14.40;24.30
2767;DHT22;1391;46.74287300;11.63683300;2023-05-17T15:44:22;14.10;20.10
2767;DHT22;1391;46.74287300;11.63683300;2023-05-17T15:46:49;14.00;20.50
2767;DHT22;1391;46.74287300;11.63683300;2023-05-17T15:49:17;14.00;19.40
2767;DHT22;1391;46.74287300;11.63683300;2023-05-17T15:51:45;14.20;18.70
2767;DHT22;1391;46.74287300;11.63683300;2023-05-17T15:54:13;14.00;20.90
2767;DHT22;1391;46.74287300;11.63683300;2023-05-17T15:56:41;14.00;19.50
2767;DHT22;1391;46.74287300;11.63683300;2023-05-17T15:59:08;14.00;19.70
2767;DHT22;1391;46.74287300;11.63683300;2023-05-17T16:01:35;14.30;22.50
2767;DHT22;1391;46.74287300;11.63683300;2023-05-17T16:04:03;14.10;21.80
2767;DHT22;1391;46.74287300;11.63683300;2023-05-17T16:06:31;14.00;19.60
2767;DHT22;1391;46.74287300;11.63683300;2023-05-17T16:09:00;14.00;22.30
2767;DHT22;1391;46.74287300;11.63683300;2023-05-17T16:11:29;14.30;19.30
2767;DHT22;1391;46.74287300;11.63683300;2023-05-17T16:13:57;14.10;19.60
2767;DHT22;1391;46.74287300;11.63683300;2023-05-17T16:16:24;14.20;20.00
2767;DHT22;1391;46.74287300;11.63683300;2023-05-17T16:18:51;14.00;20.40
2767;DHT22;1391;46.74287300;11.63683300;2023-05-17T16:21:18;14.30;21.80
2767;DHT22;1391;46.74287300;11.63683300;2023-05-17T16:23:45;14.40;20.40
2767;DHT22;1391;46.74287300;11.63683300;2023-05-17T16:26:13;14.30;20.00
2767;DHT22;1391;46.74287300;11.63683300;2023-05-17T16:28:41;13.60;20.90
2767;DHT22;1391;46.74287300;11.63683300;2023-05-17T16:31:09;14.20;20.70
2767;DHT22;1391;46.74287300;11.63683300;2023-05-17T16:33:36;14.30;19.10
2767;DHT22;1391;46.74287300;11.63683300;2023-05-17T16:36:05;14.10;20.50
2767;DHT22;1391;46.74287300;11.63683300;2023-05-17T16:38:33;13.60;22.00
2767;DHT22;1391;46.74287300;11.63683300;2023-05-17T16:41:00;13.50;22.20
2767;DHT22;1391;46.74287300;11.63683300;2023-05-17T16:43:28;13.60;22.00
2767;DHT22;1391;46.74287300;11.63683300;2023-05-17T16:45:57;13.50;22.20
2767;DHT22;1391;46.74287300;11.63683300;2023-05-17T16:48:24;13.50;21.50
2767;DHT22;1391;46.74287300;11.63683300;2023-05-17T16:50:52;13.50;21.60
2767;DHT22;1391;46.74287300;11.63683300;2023-05-17T16:53:19;13.50;20.90
2767;DHT22;1391;46.74287300;11.63683300;2023-05-17T16:55:46;13.40;21.00
2767;DHT22;1391;46.74287300;11.63683300;2023-05-17T16:58:13;13.50;21.40
2767;DHT22;1391;46.74287300;11.63683300;2023-05-17T17:00:40;13.20;21.50
2767;DHT22;1391;46.74287300;11.63683300;2023-05-17T17:03:09;13.50;20.50
2767;DHT22;1391;46.74287300;11.63683300;2023-05-17T17:05:36;13.70;22.40
2767;DHT22;1391;46.74287300;11.63683300;2023-05-17T17:08:04;13.50;21.80
2767;DHT22;1391;46.74287300;11.63683300;2023-05-17T17:10:31;13.60;21.00
2767;DHT22;1391;46.74287300;11.63683300;2023-05-17T17:13:01;13.40;19.50
2767;DHT22;1391;46.74287300;11.63683300;2023-05-17T17:15:28;13.50;20.70
2767;DHT22;1391;46.74287300;11.63683300;2023-05-17T17:17:55;13.60;21.20
2767;DHT22;1391;46.74287300;11.63683300;2023-05-17T17:20:24;13.50;20.90
2767;DHT22;1391;46.74287300;11.63683300;2023-05-17T17:22:52;13.70;20.90
2767;DHT22;1391;46.74287300;11.63683300;2023-05-17T17:25:19;13.50;21.70
2767;DHT22;1391;46.74287300;11.63683300;2023-05-17T17:27:49;13.90;20.00
2767;DHT22;1391;46.74287300;11.63683300;2023-05-17T17:30:17;13.40;21.70
2767;DHT22;1391;46.74287300;11.63683300;2023-05-17T17:32:44;13.60;20.10
2767;DHT22;1391;46.74287300;11.63683300;2023-05-17T17:35:11;13.60;22.30
2767;DHT22;1391;46.74287300;11.63683300;2023-05-17T17:37:40;13.60;18.80
2767;DHT22;1391;46.74287300;11.63683300;2023-05-17T17:40:08;13.50;19.70
2767;DHT22;1391;46.74287300;11.63683300;2023-05-17T17:42:37;13.00;19.60
2767;DHT22;1391;46.74287300;11.63683300;2023-05-17T17:45:05;13.50;20.10
2767;DHT22;1391;46.74287300;11.63683300;2023-05-17T17:47:33;13.50;21.30
2767;DHT22;1391;46.74287300;11.63683300;2023-05-17T17:50:00;12.90;20.10
2767;DHT22;1391;46.74287300;11.63683300;2023-05-17T17:52:27;13.10;20.30
2767;DHT22;1391;46.74287300;11.63683300;2023-05-17T17:54:56;13.00;22.10
2767;DHT22;1391;46.74287300;11.63683300;2023-05-17T17:57:23;13.30;20.90
2767;DHT22;1391;46.74287300;11.63683300;2023-05-17T17:59:51;13.10;20.80
2767;DHT22;1391;46.74287300;11.63683300;2023-05-17T18:02:18;13.10;19.60
2767;DHT22;1391;46.74287300;11.63683300;2023-05-17T18:04:45;13.20;22.00
2767;DHT22;1391;46.74287300;11.63683300;2023-05-17T18:07:13;12.60;21.80
2767;DHT22;1391;46.74287300;11.63683300;2023-05-17T18:09:41;13.20;19.60
2767;DHT22;1391;46.74287300;11.63683300;2023-05-17T18:12:10;13.00;19.20
2767;DHT22;1391;46.74287300;11.63683300;2023-05-17T18:14:37;13.00;20.50
2767;DHT22;1391;46.74287300;11.63683300;2023-05-17T18:17:05;13.10;19.80
2767;DHT22;1391;46.74287300;11.63683300;2023-05-17T18:19:32;12.90;20.90
2767;DHT22;1391;46.74287300;11.63683300;2023-05-17T18:21:59;13.00;20.70
2767;DHT22;1391;46.74287300;11.63683300;2023-05-17T18:24:27;12.80;21.10
2767;DHT22;1391;46.74287300;11.63683300;2023-05-17T18:26:54;12.90;20.50
2767;DHT22;1391;46.74287300;11.63683300;2023-05-17T18:29:23;13.00;20.90
2767;DHT22;1391;46.74287300;11.63683300;2023-05-17T18:31:50;12.90;19.50
2767;DHT22;1391;46.74287300;11.63683300;2023-05-17T18:34:18;13.00;19.20
2767;DHT22;1391;46.74287300;11.63683300;2023-05-17T18:36:45;13.10;20.70
2767;DHT22;1391;46.74287300;11.63683300;2023-05-17T18:39:12;12.70;20.40
2767;DHT22;1391;46.74287300;11.63683300;2023-05-17T18:41:40;12.70;21.00
2767;DHT22;1391;46.74287300;11.63683300;2023-05-17T18:44:07;13.00;21.50
2767;DHT22;1391;46.74287300;11.63683300;2023-05-17T18:46:36;13.10;20.80
2767;DHT22;1391;46.74287300;11.63683300;2023-05-17T18:49:03;12.80;20.60
2767;DHT22;1391;46.74287300;11.63683300;2023-05-17T18:51:30;12.50;20.70
2767;DHT22;1391;46.74287300;11.63683300;2023-05-17T18:53:58;12.50;19.70
2767;DHT22;1391;46.74287300;11.63683300;2023-05-17T18:56:25;13.10;20.10
2767;DHT22;1391;46.74287300;11.63683300;2023-05-17T18:58:53;12.60;20.00
2767;DHT22;1391;46.74287300;11.63683300;2023-05-17T19:01:22;12.40;20.30
2767;DHT22;1391;46.74287300;11.63683300;2023-05-17T19:03:51;12.60;19.80
2767;DHT22;1391;46.74287300;11.63683300;2023-05-17T19:06:19;12.40;19.90
2767;DHT22;1391;46.74287300;11.63683300;2023-05-17T19:08:48;12.70;19.80
2767;DHT22;1391;46.74287300;11.63683300;2023-05-17T19:11:16;12.70;19.00
2767;DHT22;1391;46.74287300;11.63683300;2023-05-17T19:13:44;12.70;19.60
2767;DHT22;1391;46.74287300;11.63683300;2023-05-17T19:16:13;12.70;20.20
2767;DHT22;1391;46.74287300;11.63683300;2023-05-17T19:18:41;12.70;20.00
2767;DHT22;1391;46.74287300;11.63683300;2023-05-17T19:21:09;12.70;20.90
2767;DHT22;1391;46.74287300;11.63683300;2023-05-17T19:23:37;12.70;21.50
2767;DHT22;1391;46.74287300;11.63683300;2023-05-17T19:26:04;12.40;21.10
2767;DHT22;1391;46.74287300;11.63683300;2023-05-17T19:28:31;12.60;20.80
2767;DHT22;1391;46.74287300;11.63683300;2023-05-17T19:31:01;12.70;20.30
2767;DHT22;1391;46.74287300;11.63683300;2023-05-17T19:33:29;12.60;20.20
2767;DHT22;1391;46.74287300;11.63683300;2023-05-17T19:35:58;12.40;20.60
2767;DHT22;1391;46.74287300;11.63683300;2023-05-17T19:38:27;12.70;20.90
2767;DHT22;1391;46.74287300;11.63683300;2023-05-17T19:40:55;11.90;20.80
2767;DHT22;1391;46.74287300;11.63683300;2023-05-17T19:43:23;12.70;20.70
2767;DHT22;1391;46.74287300;11.63683300;2023-05-17T19:45:50;12.40;20.60
2767;DHT22;1391;46.74287300;11.63683300;2023-05-17T19:48:17;12.70;20.70
2767;DHT22;1391;46.74287300;11.63683300;2023-05-17T19:50:44;12.40;20.40
2767;DHT22;1391;46.74287300;11.63683300;2023-05-17T19:53:12;12.50;19.90
2767;DHT22;1391;46.74287300;11.63683300;2023-05-17T19:55:41;12.70;20.60
2767;DHT22;1391;46.74287300;11.63683300;2023-05-17T19:58:09;12.60;18.60
2767;DHT22;1391;46.74287300;11.63683300;2023-05-17T20:00:39;12.60;19.80
2767;DHT22;1391;46.74287300;11.63683300;2023-05-17T20:03:08;12.40;20.90
2767;DHT22;1391;46.74287300;11.63683300;2023-05-17T20:05:36;12.70;21.00
2767;DHT22;1391;46.74287300;11.63683300;2023-05-17T20:08:04;12.30;20.40
2767;DHT22;1391;46.74287300;11.63683300;2023-05-17T20:10:32;12.60;21.00
2767;DHT22;1391;46.74287300;11.63683300;2023-05-17T20:13:01;12.40;20.30